Safmarine Cameroun — 9V9863 — position and weather

sailwx.info

Track history (hours):
 
Tides and Currents Weather Stations Pressure Air Temp Water Temp Dewpoint Dewpoint Depression Visibility Wind Speed Wind Dir Waves Ship Positions

Safmarine Cameroun

Last reported at 2018-Feb-21 01:57 UTC. Time now 2018-Feb-21 03:52 UTC.
Position N 35°53' W 005°34'.

Length 195 m; draft 9.2 m.

Type: Ship (hazmat cat A). MMSI: 566415000.

Date/timePositionNaut miles runAvg speedWind from/ knotsBaromVisibWave heightAir tempDewpointWater temp
2018-Feb-21 01:57N 35°53' W 005°34'  
2018-Feb-16 01:16N 31°10' W 011°24'514.5
2018-Feb-16 00:55N 31°05' W 011°27'4614.3
2018-Feb-15 21:43N 30°26' W 011°54'314.6
2018-Feb-15 21:30N 30°23' W 011°55'814.3
2018-Feb-15 20:58N 30°16' W 011°60'4213.6
2018-Feb-15 17:50N 29°39' W 012°25'510.6
2018-Feb-15 17:20N 29°35' W 012°27'411.6
2018-Feb-15 16:58N 29°31' W 012°29'613.0
2018-Feb-15 16:30N 29°25' W 012°32'612.9
2018-Feb-15 16:00N 29°21' W 012°37'612.9
2018-Feb-15 15:30N 29°15' W 012°41'713.4
2018-Feb-15 15:00N 29°09' W 012°45'713.6
2018-Feb-15 14:30N 29°03' W 012°48'713.4
2018-Feb-15 13:58N 28°57' W 012°52'613.4
2018-Feb-15 13:30N 28°52' W 012°56'1913.7
2018-Feb-15 12:06N 28°35' W 013°07'214.1
2018-Feb-15 11:57N 28°33' W 013°08'614.1
2018-Feb-15 11:30N 28°28' W 013°12'714.0
2018-Feb-15 11:00N 28°22' W 013°16'714.0
2018-Feb-15 10:30N 28°16' W 013°20'713.8
2018-Feb-15 10:00N 28°10' W 013°23'713.7
2018-Feb-15 09:30N 28°04' W 013°27'613.2
2018-Feb-15 09:00N 27°58' W 013°31'713.2
2018-Feb-15 08:30N 27°53' W 013°36'713.1
2018-Feb-15 08:00N 27°48' W 013°41'612.7
2018-Feb-15 07:30N 27°43' W 013°46'612.6
2018-Feb-15 07:00N 27°39' W 013°51'712.8
2018-Feb-15 06:29N 27°34' W 013°55'613.0
2018-Feb-15 06:00N 27°29' W 014°00'713.3
2018-Feb-15 05:30N 27°24' W 014°05'713.2
2018-Feb-15 05:00N 27°19' W 014°10'713.3
2018-Feb-15 04:30N 27°14' W 014°14'713.4
2018-Feb-15 04:00N 27°09' W 014°20'713.0
2018-Feb-15 03:30N 27°05' W 014°25'812.9
2018-Feb-15 02:54N 26°60' W 014°32'512.9
2018-Feb-15 02:30N 26°55' W 014°35'713.0
2018-Feb-15 02:00N 26°49' W 014°38'  
Track history (hours):
 
Tides and Currents Weather Stations Pressure Air Temp Water Temp Dewpoint Dewpoint Depression Visibility Wind Speed Wind Dir Waves Ship Positions

Safmarine Cameroun

Last reported at 2018-Feb-21 01:57 UTC. Time now 2018-Feb-21 03:52 UTC.
Position N 35°53' W 005°34'.

Length 195 m; draft 9.2 m.

Type: Ship (hazmat cat A). MMSI: 566415000.

Date/timePositionNaut miles runAvg speedWind from/ knotsBaromVisibWave heightAir tempDewpointWater temp
2018-Feb-21 01:57N 35°53' W 005°34'  
2018-Feb-16 01:16N 31°10' W 011°24'514.5
2018-Feb-16 00:55N 31°05' W 011°27'4614.3
2018-Feb-15 21:43N 30°26' W 011°54'314.6
2018-Feb-15 21:30N 30°23' W 011°55'814.3
2018-Feb-15 20:58N 30°16' W 011°60'4213.6
2018-Feb-15 17:50N 29°39' W 012°25'510.6
2018-Feb-15 17:20N 29°35' W 012°27'411.6
2018-Feb-15 16:58N 29°31' W 012°29'613.0
2018-Feb-15 16:30N 29°25' W 012°32'612.9
2018-Feb-15 16:00N 29°21' W 012°37'612.9
2018-Feb-15 15:30N 29°15' W 012°41'713.4
2018-Feb-15 15:00N 29°09' W 012°45'713.6
2018-Feb-15 14:30N 29°03' W 012°48'713.4
2018-Feb-15 13:58N 28°57' W 012°52'613.4
2018-Feb-15 13:30N 28°52' W 012°56'1913.7
2018-Feb-15 12:06N 28°35' W 013°07'214.1
2018-Feb-15 11:57N 28°33' W 013°08'614.1
2018-Feb-15 11:30N 28°28' W 013°12'714.0
2018-Feb-15 11:00N 28°22' W 013°16'714.0
2018-Feb-15 10:30N 28°16' W 013°20'713.8
2018-Feb-15 10:00N 28°10' W 013°23'713.7
2018-Feb-15 09:30N 28°04' W 013°27'613.2
2018-Feb-15 09:00N 27°58' W 013°31'713.2
2018-Feb-15 08:30N 27°53' W 013°36'713.1
2018-Feb-15 08:00N 27°48' W 013°41'612.7
2018-Feb-15 07:30N 27°43' W 013°46'612.6
2018-Feb-15 07:00N 27°39' W 013°51'712.8
2018-Feb-15 06:29N 27°34' W 013°55'613.0
2018-Feb-15 06:00N 27°29' W 014°00'713.3
2018-Feb-15 05:30N 27°24' W 014°05'713.2
2018-Feb-15 05:00N 27°19' W 014°10'713.3
2018-Feb-15 04:30N 27°14' W 014°14'713.4
2018-Feb-15 04:00N 27°09' W 014°20'713.0
2018-Feb-15 03:30N 27°05' W 014°25'812.9
2018-Feb-15 02:54N 26°60' W 014°32'512.9
2018-Feb-15 02:30N 26°55' W 014°35'713.0
2018-Feb-15 02:00N 26°49' W 014°38'  

Dump ship's entire track history